createdAt,value
2019-04-21T00:00:52.256Z,100631.01
2019-04-21T00:03:23.570Z,100623.88
2019-04-21T00:06:07.596Z,100622.03
2019-04-21T00:08:41.504Z,100632.20
2019-04-21T00:11:11.076Z,100627.23
2019-04-21T00:13:32.629Z,100626.02
2019-04-21T00:15:54.050Z,100625.92
2019-04-21T00:18:48.590Z,100633.44
2019-04-21T00:21:22.516Z,100630.34
2019-04-21T00:24:03.882Z,100628.79
2019-04-21T00:26:35.186Z,100630.52
2019-04-21T00:29:09.169Z,100621.53
2019-04-21T00:31:28.526Z,100625.84
2019-04-21T00:33:47.798Z,100628.95
2019-04-21T00:36:23.736Z,100623.84
2019-04-21T00:39:18.796Z,100623.47
2019-04-21T00:41:38.386Z,100625.53
2019-04-21T00:44:00.743Z,100626.59
2019-04-21T00:46:33.676Z,100622.44
2019-04-21T00:49:01.376Z,100618.46
2019-04-21T00:51:51.440Z,100615.24
2019-04-21T00:54:21.367Z,100614.86
2019-04-21T00:56:41.324Z,100611.92
2019-04-21T00:59:13.836Z,100617.32
2019-04-21T01:01:43.682Z,100613.41
2019-04-21T01:04:19.671Z,100615.08
2019-04-21T01:06:49.583Z,100609.29
2019-04-21T01:09:09.520Z,100606.26
2019-04-21T01:11:44.776Z,100599.86
2019-04-21T01:14:20.080Z,100604.17
2019-04-21T01:16:45.773Z,100608.92
2019-04-21T01:19:17.316Z,100602.39
2019-04-21T01:21:25.323Z,100606.41
2019-04-21T01:23:55.720Z,100605.39
2019-04-21T01:26:32.518Z,100603.21
2019-04-21T01:29:12.057Z,100599.16
2019-04-21T01:31:45.034Z,100602.56
2019-04-21T01:34:14.921Z,100596.55
2019-04-21T01:36:45.133Z,100604.34
2019-04-21T01:39:22.543Z,100595.02
2019-04-21T01:41:52.530Z,100596.78
2019-04-21T01:44:27.285Z,100589.79
2019-04-21T01:46:45.875Z,100596.39
2019-04-21T01:49:11.497Z,100594.14
2019-04-21T01:52:02.788Z,100587.50
2019-04-21T01:54:40.413Z,100591.15
2019-04-21T01:57:15.625Z,100582.55
2019-04-21T01:59:39.615Z,100588.53
2019-04-21T02:02:20.306Z,100583.69
2019-04-21T02:04:54.287Z,100581.33
2019-04-21T02:07:17.049Z,100581.08
2019-04-21T02:09:50.977Z,100571.41
2019-04-21T02:12:20.957Z,100575.78
2019-04-21T02:15:03.269Z,100569.78
2019-04-21T02:17:16.383Z,100573.22
2019-04-21T02:19:45.112Z,100569.29
2019-04-21T02:22:21.372Z,100567.77
2019-04-21T02:24:56.663Z,100560.89
2019-04-21T02:27:23.716Z,100563.39
2019-04-21T02:29:54.951Z,100561.90
2019-04-21T02:32:39.325Z,100562.08
2019-04-21T02:35:12.403Z,100565.84
2019-04-21T02:42:37.972Z,100571.81
2019-04-21T02:47:48.543Z,100568.03
2019-04-21T02:55:06.271Z,100568.52
2019-04-21T03:03:09.345Z,100561.23
2019-04-21T03:05:46.920Z,100563.45
2019-04-21T03:08:14.761Z,100558.59
2019-04-21T03:13:13.878Z,100567.52
2019-04-21T03:15:49.386Z,100564.92
2019-04-21T03:23:38.140Z,100568.52
2019-04-21T03:28:43.461Z,100579.59
2019-04-21T03:31:19.261Z,100577.80
2019-04-21T03:36:33.531Z,100573.16
2019-04-21T03:38:43.122Z,100574.08
2019-04-21T03:41:04.004Z,100575.50
2019-04-21T03:43:34.840Z,100571.80
2019-04-21T03:46:02.130Z,100577.70
2019-04-21T03:48:35.577Z,100575.28
2019-04-21T03:51:04.856Z,100579.97
2019-04-21T03:53:31.925Z,100575.67
2019-04-21T03:56:02.755Z,100583.56
2019-04-21T03:58:46.347Z,100583.41
2019-04-21T04:01:21.992Z,100588.09
2019-04-21T04:10:03.987Z,100588.86
2019-04-21T04:12:26.924Z,100581.66
2019-04-21T04:14:55.521Z,100576.27
2019-04-21T04:17:25.590Z,100571.13
2019-04-21T04:19:54.786Z,100577.30
2019-04-21T04:22:31.383Z,100571.09
2019-04-21T04:27:47.811Z,100574.14
2019-04-21T04:29:59.127Z,100572.84
2019-04-21T04:32:29.270Z,100571.09
2019-04-21T04:35:03.890Z,100571.78
2019-04-21T04:48:05.980Z,100574.52
2019-04-21T04:53:15.779Z,100569.27
2019-04-21T04:55:38.909Z,100571.34
2019-04-21T04:58:12.429Z,100572.73
2019-04-21T05:03:18.910Z,100580.05
2019-04-21T05:06:38.855Z,100569.52
2019-04-21T05:11:31.024Z,100575.70
2019-04-21T05:13:58.070Z,100570.58
2019-04-21T05:16:24.374Z,100572.22
2019-04-21T05:21:29.955Z,100561.27
2019-04-21T05:23:44.080Z,100566.19
2019-04-21T05:26:06.354Z,100568.83
2019-04-21T05:28:37.434Z,100564.86
2019-04-21T05:31:45.885Z,100572.83
2019-04-21T05:37:04.047Z,100565.11
2019-04-21T05:39:37.509Z,100559.50
2019-04-21T05:42:07.803Z,100566.95
2019-04-21T05:44:58.844Z,100557.45
2019-04-21T05:49:52.383Z,100553.73
2019-04-21T05:52:22.794Z,100557.30
2019-04-21T05:57:28.824Z,100563.63
2019-04-21T05:59:53.333Z,100559.70
2019-04-21T06:02:30.667Z,100563.27
2019-04-21T06:05:24.527Z,100563.33
2019-04-21T06:07:29.662Z,100559.13
2019-04-21T06:09:59.678Z,100557.75
2019-04-21T06:12:36.051Z,100560.98
2019-04-21T06:15:02.610Z,100554.08
2019-04-21T06:17:34.860Z,100554.57
2019-04-21T06:20:00.308Z,100554.79
2019-04-21T06:22:29.179Z,100559.39
2019-04-21T06:25:31.590Z,100558.70
2019-04-21T06:27:32.480Z,100552.70
2019-04-21T06:30:19.504Z,100552.12
2019-04-21T06:32:50.527Z,100560.52
2019-04-21T06:35:28.147Z,100556.58
2019-04-21T06:37:50.134Z,100560.23
2019-04-21T06:40:33.689Z,100559.98
2019-04-21T06:43:08.240Z,100548.78
2019-04-21T06:47:57.584Z,100558.84
2019-04-21T06:50:37.820Z,100565.69
2019-04-21T06:53:23.784Z,100560.61
2019-04-21T06:55:26.794Z,100567.05
2019-04-21T06:58:00.709Z,100564.23
2019-04-21T07:00:30.484Z,100560.30
2019-04-21T07:03:08.377Z,100562.89
2019-04-21T07:05:33.623Z,100570.94
2019-04-21T07:08:16.862Z,100563.96
2019-04-21T07:10:31.792Z,100568.46
2019-04-21T07:13:03.483Z,100563.93
2019-04-21T07:15:37.058Z,100563.58
2019-04-21T07:18:04.548Z,100566.29
2019-04-21T07:20:36.768Z,100572.62
2019-04-21T07:23:09.332Z,100572.83
2019-04-21T07:25:39.036Z,100569.98
2019-04-21T07:28:05.264Z,100569.86
2019-04-21T07:30:39.206Z,100569.07
2019-04-21T07:33:37.568Z,100569.03
2019-04-21T07:35:37.308Z,100567.34
2019-04-21T07:38:02.958Z,100564.09
2019-04-21T07:40:36.501Z,100567.66
2019-04-21T07:43:03.689Z,100564.57
2019-04-21T07:45:38.122Z,100554.76
2019-04-21T07:48:14.427Z,100556.73
2019-04-21T07:50:52.078Z,100552.63
2019-04-21T07:53:27.727Z,100544.71
2019-04-21T07:55:34.220Z,100546.92
2019-04-21T07:58:22.679Z,100548.48
2019-04-21T08:00:56.363Z,100554.38
2019-04-21T08:03:30.364Z,100539.58
2019-04-21T08:05:58.440Z,100540.72
2019-04-21T08:08:20.798Z,100539.39
2019-04-21T08:10:50.680Z,100536.61
2019-04-21T08:13:34.525Z,100529.91
2019-04-21T08:15:58.092Z,100536.78
2019-04-21T08:18:28.788Z,100530.86
2019-04-21T08:20:54.430Z,100531.23
2019-04-21T08:23:25.674Z,100532.01
2019-04-21T08:28:31.710Z,100526.05
2019-04-21T08:31:01.776Z,100522.41
2019-04-21T08:33:47.041Z,100519.78
2019-04-21T08:36:12.913Z,100522.62
2019-04-21T08:38:28.681Z,100519.33
2019-04-21T08:41:03.566Z,100510.20
2019-04-21T08:43:45.614Z,100525.63
2019-04-21T08:45:58.767Z,100523.44
2019-04-21T08:48:32.769Z,100522.23
2019-04-21T08:51:18.466Z,100522.88
2019-04-21T08:53:35.691Z,100521.09
2019-04-21T08:56:21.265Z,100520.15
2019-04-21T08:59:20.474Z,100521.38
2019-04-21T09:01:55.769Z,100510.97
2019-04-21T09:04:26.243Z,100499.66
2019-04-21T09:09:28.886Z,100497.02
2019-04-21T09:11:59.173Z,100492.06
2019-04-21T09:14:24.104Z,100489.62
2019-04-21T09:16:53.305Z,100492.44
2019-04-21T09:19:38.784Z,100484.52
2019-04-21T09:22:02.349Z,100478.03
2019-04-21T09:24:26.933Z,100475.27
2019-04-21T09:26:57.995Z,100470.91
2019-04-21T09:29:25.745Z,100468.16
2019-04-21T09:31:45.165Z,100471.13
2019-04-21T09:34:21.104Z,100467.53
2019-04-21T09:36:48.061Z,100465.78
2019-04-21T09:39:18.344Z,100462.48
2019-04-21T09:41:44.923Z,100459.30
2019-04-21T09:44:20.646Z,100450.17
2019-04-21T09:46:50.616Z,100456.26
2019-04-21T09:49:20.640Z,100449.63
2019-04-21T09:51:45.949Z,100445.11
2019-04-21T09:54:22.464Z,100440.77
2019-04-21T09:56:52.387Z,100436.45
2019-04-21T09:59:27.587Z,100439.91
2019-04-21T10:01:59.168Z,100434.97
2019-04-21T10:04:21.177Z,100428.88
2019-04-21T10:06:49.845Z,100424.50
2019-04-21T10:09:21.545Z,100425.94
2019-04-21T10:11:50.379Z,100427.55
2019-04-21T10:14:19.796Z,100421.16
2019-04-21T10:17:05.841Z,100415.41
2019-04-21T10:19:34.416Z,100414.80
2019-04-21T10:22:05.574Z,100414.09
2019-04-21T10:24:34.045Z,100404.33
2019-04-21T10:27:05.061Z,100404.01
2019-04-21T10:29:34.836Z,100395.77
2019-04-21T10:32:03.910Z,100398.07
2019-04-21T10:34:32.430Z,100403.67
2019-04-21T10:37:01.047Z,100390.55
2019-04-21T10:39:29.658Z,100390.56
2019-04-21T10:41:59.497Z,100391.44
2019-04-21T10:44:29.434Z,100388.42
2019-04-21T10:46:58.463Z,100389.06
2019-04-21T10:49:27.126Z,100385.52
2019-04-21T10:51:56.847Z,100386.53
2019-04-21T10:54:27.217Z,100377.39
2019-04-21T10:56:56.654Z,100380.70
2019-04-21T10:59:25.371Z,100383.28
2019-04-21T11:01:54.890Z,100373.00
2019-04-21T11:04:34.569Z,100370.36
2019-04-21T11:07:06.028Z,100359.53
2019-04-21T11:09:31.858Z,100363.97
2019-04-21T11:12:02.005Z,100355.81
2019-04-21T11:14:31.505Z,100348.51
2019-04-21T11:17:00.574Z,100346.41
2019-04-21T11:19:30.586Z,100343.45
2019-04-21T11:22:00.866Z,100335.41
2019-04-21T11:24:31.186Z,100333.22
2019-04-21T11:27:01.656Z,100342.30
2019-04-21T11:29:31.024Z,100335.95
2019-04-21T11:32:00.875Z,100340.58
2019-04-21T11:34:29.783Z,100327.22
2019-04-21T11:36:58.497Z,100320.33
2019-04-21T11:39:39.174Z,100320.05
2019-04-21T11:42:03.839Z,100321.56
2019-04-21T11:44:33.097Z,100313.84
2019-04-21T11:47:04.586Z,100319.88
2019-04-21T11:49:33.271Z,100320.12
2019-04-21T11:52:02.842Z,100313.59
2019-04-21T11:54:32.825Z,100312.52
2019-04-21T11:57:08.001Z,100309.84
2019-04-21T11:59:33.376Z,100307.24
2019-04-21T12:02:02.042Z,100308.05
2019-04-21T12:04:31.673Z,100306.11
2019-04-21T12:07:01.765Z,100302.91
2019-04-21T12:09:30.489Z,100300.92
2019-04-21T12:11:59.194Z,100301.77
2019-04-21T12:14:28.072Z,100297.19
2019-04-21T12:16:57.191Z,100290.66
2019-04-21T12:19:27.005Z,100288.67
2019-04-21T12:22:06.334Z,100288.64
2019-04-21T12:24:29.992Z,100286.59
2019-04-21T12:26:57.983Z,100285.35
2019-04-21T12:29:26.937Z,100267.22
2019-04-21T12:32:22.141Z,100266.70
2019-04-21T12:34:52.172Z,100263.07
2019-04-21T12:37:22.745Z,100258.23
2019-04-21T12:39:52.529Z,100257.77
2019-04-21T12:42:21.114Z,100253.14
2019-04-21T12:44:49.632Z,100248.83
2019-04-21T12:47:19.560Z,100246.28
2019-04-21T12:49:48.172Z,100246.60
2019-04-21T12:52:17.735Z,100237.30
2019-04-21T12:54:47.924Z,100238.59
2019-04-21T12:57:17.147Z,100235.34
2019-04-21T12:59:46.683Z,100235.78
2019-04-21T13:02:15.931Z,100238.30
2019-04-21T13:04:45.891Z,100232.06
2019-04-21T13:07:15.406Z,100228.47
2019-04-21T13:09:44.300Z,100226.70
2019-04-21T13:12:13.214Z,100217.45
2019-04-21T13:14:42.108Z,100211.70
2019-04-21T13:17:10.916Z,100219.64
2019-04-21T13:19:39.519Z,100208.88
2019-04-21T13:22:09.900Z,100195.66
2019-04-21T13:24:39.912Z,100201.52
2019-04-21T13:27:09.457Z,100187.76
2019-04-21T13:29:39.117Z,100173.70
2019-04-21T13:32:08.957Z,100165.50
2019-04-21T13:34:38.422Z,100169.70
2019-04-21T13:37:07.634Z,100181.08
2019-04-21T13:40:29.181Z,100181.27
2019-04-21T13:42:45.610Z,100177.52
2019-04-21T13:45:12.170Z,100184.52
2019-04-21T13:47:40.945Z,100176.14
2019-04-21T13:50:11.202Z,100172.80
2019-04-21T13:52:40.683Z,100181.11
2019-04-21T13:55:09.735Z,100173.53
2019-04-21T13:57:38.830Z,100177.56
2019-04-21T14:00:08.940Z,100173.73
2019-04-21T14:02:38.680Z,100176.61
2019-04-21T14:05:10.110Z,100174.43
2019-04-21T14:07:38.551Z,100160.49
2019-04-21T14:10:10.374Z,100155.63
2019-04-21T14:12:38.288Z,100165.94
2019-04-21T14:15:08.305Z,100163.55
2019-04-21T14:17:37.087Z,100159.08
2019-04-21T14:20:07.021Z,100152.31
2019-04-21T14:22:36.014Z,100152.58
2019-04-21T14:25:05.874Z,100153.95
2019-04-21T14:27:34.567Z,100147.61
2019-04-21T14:30:04.896Z,100146.46
2019-04-21T14:32:33.837Z,100151.17
2019-04-21T14:35:03.139Z,100140.86
2019-04-21T14:37:32.885Z,100142.14
2019-04-21T14:40:08.626Z,100149.09
2019-04-21T14:42:33.932Z,100134.31
2019-04-21T14:45:05.053Z,100138.51
2019-04-21T14:48:05.360Z,100136.91
2019-04-21T14:50:46.333Z,100141.65
2019-04-21T14:53:23.604Z,100140.74
2019-04-21T14:55:53.193Z,100142.00
2019-04-21T14:58:23.272Z,100141.27
2019-04-21T15:00:55.697Z,100137.72
2019-04-21T15:03:25.832Z,100133.08
2019-04-21T15:05:55.669Z,100135.23
2019-04-21T15:08:25.052Z,100137.89
2019-04-21T15:10:54.830Z,100134.05
2019-04-21T15:13:23.750Z,100130.66
2019-04-21T15:15:52.354Z,100133.19
2019-04-21T15:18:21.092Z,100129.13
2019-04-21T15:20:50.532Z,100129.00
2019-04-21T15:23:20.378Z,100124.27
2019-04-21T15:25:50.265Z,100120.80
2019-04-21T15:28:25.484Z,100123.66
2019-04-21T15:30:54.636Z,100120.48
2019-04-21T15:33:24.378Z,100120.11
2019-04-21T15:35:53.183Z,100122.21
2019-04-21T15:38:22.238Z,100110.07
2019-04-21T15:40:56.073Z,100108.84
2019-04-21T15:43:22.452Z,100106.45
2019-04-21T15:45:51.089Z,100106.52
2019-04-21T15:48:20.213Z,100108.91
2019-04-21T15:50:51.528Z,100104.50
2019-04-21T15:53:21.649Z,100107.21
2019-04-21T15:55:55.040Z,100105.84
2019-04-21T15:58:58.915Z,100106.77
2019-04-21T16:01:38.869Z,100106.23
2019-04-21T16:04:08.025Z,100100.08
2019-04-21T16:06:37.370Z,100098.70
2019-04-21T16:09:08.548Z,100099.45
2019-04-21T16:11:37.870Z,100100.25
2019-04-21T16:14:08.111Z,100097.16
2019-04-21T16:16:36.697Z,100092.42
2019-04-21T16:19:06.136Z,100093.70
2019-04-21T16:21:38.364Z,100095.07
2019-04-21T16:24:06.760Z,100090.39
2019-04-21T16:26:35.548Z,100091.00
2019-04-21T16:29:05.002Z,100088.56
2019-04-21T16:31:34.326Z,100085.37
2019-04-21T16:34:03.275Z,100081.14
2019-04-21T16:36:31.953Z,100081.81
2019-04-21T16:39:01.716Z,100080.64
2019-04-21T16:41:31.982Z,100082.83
2019-04-21T16:44:00.943Z,100080.58
2019-04-21T16:46:29.621Z,100088.55
2019-04-21T16:48:58.202Z,100074.56
2019-04-21T16:51:26.806Z,100080.48
2019-04-21T16:53:59.867Z,100079.10
2019-04-21T16:56:35.877Z,100074.55
2019-04-21T16:59:19.006Z,100082.40
2019-04-21T17:01:48.822Z,100083.23
2019-04-21T17:04:18.253Z,100079.95
2019-04-21T17:06:47.192Z,100082.91
2019-04-21T17:09:16.753Z,100087.44
2019-04-21T17:11:46.963Z,100083.27
2019-04-21T17:14:32.923Z,100090.77
2019-04-21T17:17:16.261Z,100085.56
2019-04-21T17:19:25.086Z,100090.83
2019-04-21T17:21:47.900Z,100090.75
2019-04-21T17:24:16.823Z,100087.36
2019-04-21T17:26:46.456Z,100097.81
2019-04-21T17:29:16.840Z,100096.68
2019-04-21T17:31:45.660Z,100089.97
2019-04-21T17:34:19.560Z,100098.81
2019-04-21T17:36:45.376Z,100090.73
2019-04-21T17:39:14.038Z,100094.08
2019-04-21T17:42:04.091Z,100097.94
2019-04-21T17:44:13.120Z,100100.23
2019-04-21T17:46:48.535Z,100096.44
2019-04-21T17:49:12.810Z,100099.16
2019-04-21T17:52:18.177Z,100098.48
2019-04-21T17:54:54.279Z,100100.25
2019-04-21T17:57:43.843Z,100110.09
2019-04-21T18:00:13.950Z,100110.12
2019-04-21T18:02:51.769Z,100113.20
2019-04-21T18:05:19.346Z,100108.41
2019-04-21T18:07:45.384Z,100117.34
2019-04-21T18:10:11.426Z,100120.48
2019-04-21T18:12:36.088Z,100121.77
2019-04-21T18:15:08.328Z,100120.02
2019-04-21T18:17:26.751Z,100119.48
2019-04-21T18:19:57.201Z,100120.12
2019-04-21T18:22:53.171Z,100123.19
2019-04-21T18:25:36.140Z,100121.10
2019-04-21T18:27:54.542Z,100118.67
2019-04-21T18:30:52.280Z,100123.84
2019-04-21T18:33:27.362Z,100118.02
2019-04-21T18:36:13.481Z,100121.13
2019-04-21T18:39:16.784Z,100115.95
2019-04-21T18:41:42.520Z,100121.42
2019-04-21T18:44:32.248Z,100122.13
2019-04-21T18:47:20.011Z,100119.90
2019-04-21T18:49:44.147Z,100121.59
2019-04-21T18:52:53.124Z,100124.16
2019-04-21T18:55:18.984Z,100130.36
2019-04-21T18:57:43.999Z,100134.29
2019-04-21T19:00:26.458Z,100135.41
2019-04-21T19:02:54.234Z,100128.39
2019-04-21T19:05:24.206Z,100129.80
2019-04-21T19:08:10.507Z,100134.73
2019-04-21T19:10:39.633Z,100133.09
2019-04-21T19:22:00.196Z,100139.97
2019-04-21T19:27:08.015Z,100146.37
2019-04-21T19:29:57.244Z,100146.88
2019-04-21T19:32:01.806Z,100149.61
2019-04-21T19:34:23.392Z,100154.53
2019-04-21T19:36:51.025Z,100153.05
2019-04-21T19:39:36.148Z,100151.92
2019-04-21T19:42:00.417Z,100151.39
2019-04-21T19:44:38.227Z,100147.10
2019-04-21T19:47:10.816Z,100145.87
2019-04-21T19:49:45.485Z,100147.68
2019-04-21T19:52:01.989Z,100148.81
2019-04-21T19:54:32.037Z,100149.13
2019-04-21T19:56:55.538Z,100153.94
2019-04-21T19:59:32.483Z,100154.69
2019-04-21T20:01:54.591Z,100154.57
2019-04-21T20:04:31.784Z,100152.75
2019-04-21T20:07:02.800Z,100152.81
2019-04-21T20:09:40.559Z,100156.91
2019-04-21T20:12:09.660Z,100152.16
2019-04-21T20:17:08.569Z,100151.12
2019-04-21T20:19:26.693Z,100152.06
2019-04-21T20:21:56.935Z,100163.08
2019-04-21T20:24:28.851Z,100152.77
2019-04-21T20:27:02.333Z,100159.50
2019-04-21T20:29:46.611Z,100154.41
2019-04-21T20:32:20.075Z,100156.55
2019-04-21T20:34:50.905Z,100154.55
2019-04-21T20:37:15.047Z,100154.88
2019-04-21T20:39:41.828Z,100155.70
2019-04-21T20:42:18.112Z,100163.73
2019-04-21T20:44:54.551Z,100165.06
2019-04-21T20:47:12.892Z,100158.02
2019-04-21T20:49:38.663Z,100154.73
2019-04-21T20:52:17.300Z,100153.30
2019-04-21T20:54:48.217Z,100156.14
2019-04-21T20:57:18.319Z,100146.69
2019-04-21T20:59:45.164Z,100152.02
2019-04-21T21:02:20.108Z,100146.16
2019-04-21T21:04:43.475Z,100144.73
2019-04-21T21:07:34.655Z,100143.19
2019-04-21T21:09:56.005Z,100142.08
2019-04-21T21:12:27.710Z,100139.41
2019-04-21T21:14:48.978Z,100135.06
2019-04-21T21:17:41.877Z,100132.02
2019-04-21T21:19:53.184Z,100132.08
2019-04-21T21:22:16.524Z,100141.89
2019-04-21T21:24:53.936Z,100148.81
2019-04-21T21:27:19.532Z,100146.68
2019-04-21T21:29:56.126Z,100142.84
2019-04-21T21:32:27.059Z,100147.05
2019-04-21T21:35:01.351Z,100144.00
2019-04-21T21:37:31.815Z,100144.46
2019-04-21T21:40:18.101Z,100140.80
2019-04-21T21:42:11.807Z,100140.48
2019-04-21T21:44:52.047Z,100140.40
2019-04-21T21:47:25.311Z,100147.43
2019-04-21T21:49:58.190Z,100142.70
2019-04-21T21:52:29.654Z,100137.96
2019-04-21T21:54:43.683Z,100139.38
2019-04-21T21:57:12.483Z,100140.00
2019-04-21T21:59:42.207Z,100139.84
2019-04-21T22:02:17.168Z,100136.48
2019-04-21T22:04:51.046Z,100134.91
2019-04-21T22:07:16.107Z,100134.44
2019-04-21T22:09:44.235Z,100133.78
2019-04-21T22:12:14.141Z,100132.92
2019-04-21T22:14:46.901Z,100133.69
2019-04-21T22:17:31.564Z,100125.34
2019-04-21T22:20:03.803Z,100123.36
2019-04-21T22:22:27.673Z,100126.97
2019-04-21T22:24:55.676Z,100120.08
2019-04-21T22:27:15.141Z,100124.47
2019-04-21T22:29:48.210Z,100118.66
2019-04-21T22:32:19.210Z,100127.30
2019-04-21T22:34:52.389Z,100117.50
2019-04-21T22:37:30.877Z,100127.30
2019-04-21T22:40:00.812Z,100125.97
2019-04-21T22:42:22.400Z,100128.28
2019-04-21T22:44:46.299Z,100123.59
2019-04-21T22:47:20.625Z,100124.47
2019-04-21T22:49:46.500Z,100116.51
2019-04-21T22:52:19.058Z,100114.70
2019-04-21T22:54:48.482Z,100116.55
2019-04-21T22:57:19.879Z,100115.69
2019-04-21T22:59:53.905Z,100114.18
2019-04-21T23:02:22.636Z,100110.77
2019-04-21T23:04:52.477Z,100109.77
2019-04-21T23:07:21.075Z,100106.45
2019-04-21T23:09:49.496Z,100109.62
2019-04-21T23:12:22.791Z,100097.13
2019-04-21T23:14:57.349Z,100095.93
2019-04-21T23:17:42.239Z,100092.91
2019-04-21T23:20:13.280Z,100091.05
2019-04-21T23:22:49.397Z,100092.88
2019-04-21T23:25:09.524Z,100101.05
2019-04-21T23:27:38.733Z,100095.08
2019-04-21T23:30:20.247Z,100100.86
2019-04-21T23:32:33.866Z,100100.25
2019-04-21T23:34:55.316Z,100090.53
2019-04-21T23:37:25.592Z,100097.33
2019-04-21T23:40:02.101Z,100094.80
2019-04-21T23:42:31.772Z,100094.72
2019-04-21T23:44:58.020Z,100095.66
2019-04-21T23:47:34.583Z,100096.44
2019-04-21T23:50:02.722Z,100092.87
2019-04-21T23:52:25.673Z,100091.71
2019-04-21T23:54:55.548Z,100087.95
2019-04-21T23:57:31.486Z,100091.78
2019-04-21T23:59:57.106Z,100086.63
